createdAt,value
2022-12-22T00:01:27.095Z,99772.28
2022-12-22T00:04:12.824Z,99768.03
2022-12-22T00:06:58.711Z,99769.72
2022-12-22T00:09:44.636Z,99768.03
2022-12-22T00:12:32.358Z,99764.63
2022-12-22T00:15:18.936Z,99744.97
2022-12-22T00:18:06.584Z,99756.06
2022-12-22T00:20:52.492Z,99752.66
2022-12-22T00:23:38.445Z,99757.78
2022-12-22T00:26:24.356Z,99774.84
2022-12-22T00:29:11.959Z,99773.16
2022-12-22T00:31:59.274Z,99765.47
2022-12-22T00:34:46.742Z,99774.88
2022-12-22T00:37:33.546Z,99771.44
2022-12-22T00:40:20.547Z,99775.69
2022-12-22T00:43:06.842Z,99774.91
2022-12-22T00:45:52.990Z,99774.91
2022-12-22T00:48:45.145Z,99778.31
2022-12-22T00:51:31.723Z,99775.75
2022-12-22T00:54:17.836Z,99774.03
2022-12-22T00:57:03.884Z,99768.09
2022-12-22T00:59:49.484Z,99764.66
2022-12-22T01:02:36.910Z,99764.66
2022-12-22T01:05:22.680Z,99754.41
2022-12-22T01:08:08.449Z,99732.97
2022-12-22T01:10:54.497Z,99776.63
2022-12-22T01:13:40.051Z,99766.38
2022-12-22T01:16:30.176Z,99766.38
2022-12-22T01:19:15.837Z,99766.38
2022-12-22T01:22:01.650Z,99757.81
2022-12-22T01:24:49.415Z,99759.53
2022-12-22T01:27:35.758Z,99769.78
2022-12-22T01:30:21.839Z,99769.78
2022-12-22T01:33:07.446Z,99763.75
2022-12-22T01:35:54.160Z,99758.66
2022-12-22T01:38:40.141Z,99760.38
2022-12-22T01:41:31.740Z,99759.53
2022-12-22T01:44:17.413Z,99756.09
2022-12-22T01:47:05.673Z,99752.69
2022-12-22T01:50:00.364Z,99729.56
2022-12-22T01:52:53.223Z,99762.94
2022-12-22T01:55:41.326Z,99758.69
2022-12-22T01:58:45.739Z,99749.28
2022-12-22T02:01:32.936Z,99737.31
2022-12-22T02:04:19.465Z,99728.81
2022-12-22T02:07:07.859Z,99740.78
2022-12-22T02:10:21.789Z,99733.94
2022-12-22T02:13:23.730Z,99739.03
2022-12-22T02:16:24.700Z,99738.19
2022-12-22T02:19:22.393Z,99740.78
2022-12-22T02:22:37.696Z,99729.63
2022-12-22T02:25:30.058Z,99740.78
2022-12-22T02:28:17.837Z,99749.31
2022-12-22T02:31:04.379Z,99742.47
2022-12-22T02:33:50.429Z,99739.91
2022-12-22T02:36:55.801Z,99735.59
2022-12-22T02:39:47.368Z,99734.81
2022-12-22T02:43:02.899Z,99729.69
2022-12-22T02:46:24.094Z,99731.38
2022-12-22T02:49:19.877Z,99727.06
2022-12-22T02:52:14.494Z,99725.41
2022-12-22T02:55:01.033Z,99727.97
2022-12-22T02:57:48.097Z,99714.28
2022-12-22T03:00:34.134Z,99727.94
2022-12-22T03:03:20.458Z,99720.28
2022-12-22T03:06:06.828Z,99712.59
2022-12-22T03:08:52.816Z,99713.47
2022-12-22T03:11:38.736Z,99702.38
2022-12-22T03:14:24.723Z,99703.22
2022-12-22T03:17:10.316Z,99699.81
2022-12-22T03:19:56.498Z,99689.53
2022-12-22T03:22:42.215Z,99696.41
2022-12-22T03:25:27.851Z,99694.72
2022-12-22T03:27:55.111Z,99681.03
2022-12-22T03:30:22.287Z,99681.03
2022-12-22T03:32:49.573Z,99696.41
2022-12-22T03:35:17.393Z,99689.53
2022-12-22T03:37:44.492Z,99698.09
2022-12-22T03:40:11.790Z,99690.41
2022-12-22T03:42:57.327Z,99703.22
2022-12-22T03:45:42.890Z,99698.09
2022-12-22T03:48:09.920Z,99691.28
2022-12-22T03:50:36.914Z,99687.84
2022-12-22T03:53:05.979Z,99673.38
2022-12-22T03:55:32.996Z,99660.56
2022-12-22T03:58:00.062Z,99660.56
2022-12-22T04:00:27.195Z,99658.84
2022-12-22T04:02:54.437Z,99652.84
2022-12-22T04:05:21.572Z,99659.69
2022-12-22T04:07:48.630Z,99672.47
2022-12-22T04:10:34.328Z,99674.16
2022-12-22T04:13:01.347Z,99669.03
2022-12-22T04:15:31.809Z,99679.28
2022-12-22T04:18:00.166Z,99673.31
2022-12-22T04:20:28.054Z,99676.72
2022-12-22T04:22:56.423Z,99672.47
2022-12-22T04:25:24.972Z,99671.59
2022-12-22T04:27:52.024Z,99675.91
2022-12-22T04:30:19.276Z,99675.91
2022-12-22T04:32:46.478Z,99666.50
2022-12-22T04:35:13.591Z,99668.19
2022-12-22T04:37:40.713Z,99663.88
2022-12-22T04:40:08.259Z,99663.09
2022-12-22T04:42:35.358Z,99666.47
2022-12-22T04:45:02.489Z,99655.41
2022-12-22T04:47:29.592Z,99649.41
2022-12-22T04:49:56.771Z,99652.84
2022-12-22T04:52:23.846Z,99649.41
2022-12-22T04:54:50.959Z,99646.84
2022-12-22T04:57:18.492Z,99651.13
2022-12-22T04:59:45.556Z,99651.97
2022-12-22T05:02:13.071Z,99652.84
2022-12-22T05:04:40.175Z,99652.81
2022-12-22T05:07:08.008Z,99651.13
2022-12-22T05:09:35.050Z,99651.97
2022-12-22T05:12:22.181Z,99650.25
2022-12-22T05:14:49.392Z,99655.41
2022-12-22T05:17:16.533Z,99658.78
2022-12-22T05:19:43.689Z,99661.38
2022-12-22T05:22:10.768Z,99653.72
2022-12-22T05:24:38.051Z,99642.59
2022-12-22T05:27:05.616Z,99646.88
2022-12-22T05:29:32.676Z,99650.31
2022-12-22T05:31:59.720Z,99633.25
2022-12-22T05:34:26.832Z,99637.47
2022-12-22T05:36:53.923Z,99638.38
2022-12-22T05:39:21.009Z,99628.09
2022-12-22T05:41:48.081Z,99636.63
2022-12-22T05:44:15.150Z,99629.81
2022-12-22T05:46:42.280Z,99628.94
2022-12-22T05:49:09.467Z,99624.69
2022-12-22T05:51:36.652Z,99617.88
2022-12-22T05:54:03.844Z,99609.31
2022-12-22T05:56:31.094Z,99616.16
2022-12-22T05:58:58.142Z,99627.25
2022-12-22T06:01:25.304Z,99638.31
2022-12-22T06:03:59.465Z,99629.78
2022-12-22T06:06:27.291Z,99626.38
2022-12-22T06:08:54.230Z,99631.50
2022-12-22T06:11:21.400Z,99626.28
2022-12-22T06:13:50.812Z,99622.06
2022-12-22T06:16:17.945Z,99617.78
2022-12-22T06:18:45.083Z,99605.81
2022-12-22T06:21:12.094Z,99614.34
2022-12-22T06:23:39.196Z,99619.44
2022-12-22T06:26:06.245Z,99623.69
2022-12-22T06:28:33.247Z,99622.81
2022-12-22T06:31:00.305Z,99632.22
2022-12-22T06:33:27.408Z,99602.28
2022-12-22T06:35:58.877Z,99610.84
2022-12-22T06:38:28.228Z,99603.97
2022-12-22T06:40:55.494Z,99599.69
2022-12-22T06:43:22.687Z,99597.97
2022-12-22T06:45:49.729Z,99597.13
2022-12-22T06:48:17.064Z,99597.97
2022-12-22T06:50:44.307Z,99596.22
2022-12-22T06:53:12.374Z,99608.16
2022-12-22T06:55:39.462Z,99609.88
2022-12-22T06:58:06.738Z,99620.94
2022-12-22T07:00:34.298Z,99614.13
2022-12-22T07:03:01.631Z,99615.84
2022-12-22T07:05:30.726Z,99618.38
2022-12-22T07:08:02.718Z,99606.44
2022-12-22T07:11:07.146Z,99608.16
2022-12-22T07:13:35.865Z,99602.19
2022-12-22T07:16:04.845Z,99595.38
2022-12-22T07:18:35.168Z,99586.84
2022-12-22T07:21:02.697Z,99586.84
2022-12-22T07:23:30.277Z,99588.56
2022-12-22T07:25:57.696Z,99607.31
2022-12-22T07:28:25.158Z,99604.78
2022-12-22T07:30:53.445Z,99591.94
2022-12-22T07:33:20.947Z,99612.47
2022-12-22T07:35:48.015Z,99594.56
2022-12-22T07:38:15.019Z,99602.19
2022-12-22T07:40:43.571Z,99592.81
2022-12-22T07:43:12.066Z,99583.38
2022-12-22T07:45:39.489Z,99580.00
2022-12-22T07:48:29.245Z,99556.03
2022-12-22T07:51:03.588Z,99573.19
2022-12-22T07:53:31.107Z,99574.06
2022-12-22T07:56:02.792Z,99576.59
2022-12-22T07:58:30.199Z,99568.91
2022-12-22T08:00:59.218Z,99563.81
2022-12-22T08:03:26.740Z,99559.56
2022-12-22T08:05:53.999Z,99551.84
2022-12-22T08:08:21.164Z,99536.50
2022-12-22T08:10:48.229Z,99543.34
2022-12-22T08:13:15.441Z,99530.56
2022-12-22T08:15:42.723Z,99531.47
2022-12-22T08:18:09.836Z,99527.22
2022-12-22T08:20:36.961Z,99531.53
2022-12-22T08:23:04.047Z,99530.69
2022-12-22T08:25:34.437Z,99531.59
2022-12-22T08:28:02.593Z,99538.44
2022-12-22T08:30:30.218Z,99547.81
2022-12-22T08:32:57.377Z,99533.28
2022-12-22T08:35:24.471Z,99539.25
2022-12-22T08:37:52.864Z,99528.19
2022-12-22T08:40:24.592Z,99518.78
2022-12-22T08:42:59.349Z,99518.81
2022-12-22T08:45:26.734Z,99515.41
2022-12-22T08:47:54.194Z,99512.03
2022-12-22T08:50:21.393Z,99518.84
2022-12-22T08:52:48.435Z,99509.47
2022-12-22T08:55:15.689Z,99503.50
2022-12-22T08:57:42.758Z,99501.81
2022-12-22T09:00:13.477Z,99485.59
2022-12-22T09:02:40.781Z,99483.03
2022-12-22T09:05:08.459Z,99478.78
2022-12-22T09:07:35.615Z,99478.78
2022-12-22T09:10:02.863Z,99477.09
2022-12-22T09:12:30.803Z,99480.53
2022-12-22T09:14:58.741Z,99473.69
2022-12-22T09:17:25.852Z,99470.28
2022-12-22T09:19:53.018Z,99457.47
2022-12-22T09:22:26.800Z,99447.22
2022-12-22T09:24:55.892Z,99438.66
2022-12-22T09:27:23.066Z,99434.41
2022-12-22T09:29:50.166Z,99437.84
2022-12-22T09:32:17.300Z,99433.56
2022-12-22T09:34:44.432Z,99433.56
2022-12-22T09:37:11.527Z,99430.13
2022-12-22T09:39:38.601Z,99408.75
2022-12-22T09:42:12.108Z,99428.41
2022-12-22T09:44:42.361Z,99416.44
2022-12-22T09:47:21.716Z,99414.72
2022-12-22T09:49:49.617Z,99407.91
2022-12-22T09:52:53.915Z,99409.63
2022-12-22T09:55:32.668Z,99401.09
2022-12-22T09:57:59.738Z,99402.78
2022-12-22T10:00:27.845Z,99400.22
2022-12-22T10:03:23.851Z,99401.09
2022-12-22T10:06:01.896Z,99391.72
2022-12-22T10:08:33.396Z,99390.84
2022-12-22T10:11:00.580Z,99384.03
2022-12-22T10:13:27.660Z,99380.59
2022-12-22T10:15:56.017Z,99382.31
2022-12-22T10:18:28.770Z,99378.91
2022-12-22T10:21:15.310Z,99373.78
2022-12-22T10:23:48.219Z,99372.09
2022-12-22T10:26:31.444Z,99370.38
2022-12-22T10:29:06.170Z,99364.41
2022-12-22T10:31:54.855Z,99335.38
2022-12-22T10:34:22.215Z,99365.28
2022-12-22T10:36:52.747Z,99363.56
2022-12-22T10:39:26.883Z,99361.84
2022-12-22T10:42:00.324Z,99361.00
2022-12-22T10:44:34.959Z,99336.25
2022-12-22T10:47:17.902Z,99340.50
2022-12-22T10:49:48.644Z,99332.81
2022-12-22T10:52:22.515Z,99337.09
2022-12-22T10:55:15.832Z,99330.25
2022-12-22T10:57:42.940Z,99331.09
2022-12-22T11:00:24.392Z,99323.41
2022-12-22T11:02:53.731Z,99319.97
2022-12-22T11:05:21.277Z,99314.00
2022-12-22T11:07:48.907Z,99312.28
2022-12-22T11:10:24.609Z,99311.44
2022-12-22T11:13:06.858Z,99302.88
2022-12-22T11:15:45.787Z,99307.13
2022-12-22T11:18:46.954Z,99308.81
2022-12-22T11:21:36.791Z,99301.16
2022-12-22T11:24:13.818Z,99293.41
2022-12-22T11:26:48.445Z,99277.19
2022-12-22T11:29:33.373Z,99270.31
2022-12-22T11:32:18.467Z,99264.34
2022-12-22T11:34:48.207Z,99261.75
2022-12-22T11:37:54.247Z,99263.44
2022-12-22T11:40:30.809Z,99257.44
2022-12-22T11:43:29.326Z,99248.88
2022-12-22T11:46:18.737Z,99250.56
2022-12-22T11:49:19.745Z,99254.81
2022-12-22T11:52:17.395Z,99233.44
2022-12-22T11:55:11.990Z,99231.72
2022-12-22T11:57:57.782Z,99223.19
2022-12-22T12:00:32.737Z,99219.75
2022-12-22T12:03:37.247Z,99217.19
2022-12-22T12:06:26.062Z,99217.19
2022-12-22T12:09:13.556Z,99219.72
2022-12-22T12:12:10.697Z,99214.59
2022-12-22T12:14:53.786Z,99216.31
2022-12-22T12:17:56.027Z,99212.91
2022-12-22T12:20:41.531Z,99216.34
2022-12-22T12:23:53.588Z,99219.75
2022-12-22T12:26:27.911Z,99202.69
2022-12-22T12:29:13.717Z,99204.38
2022-12-22T12:32:01.290Z,99209.47
2022-12-22T12:34:34.097Z,99203.50
2022-12-22T12:37:15.285Z,99202.63
2022-12-22T12:40:15.240Z,99197.50
2022-12-22T12:42:45.303Z,99193.19
2022-12-22T12:45:44.575Z,99200.91
2022-12-22T12:48:20.622Z,99199.16
2022-12-22T12:50:58.063Z,99206.00
2022-12-22T12:53:29.762Z,99200.88
2022-12-22T12:56:00.196Z,99188.91
2022-12-22T12:58:38.865Z,99184.59
2022-12-22T13:01:13.292Z,99182.00
2022-12-22T13:06:49.774Z,99185.47
2022-12-22T13:12:33.657Z,99178.63
2022-12-22T13:15:02.242Z,99173.50
2022-12-22T13:17:34.769Z,99176.91
2022-12-22T13:20:03.128Z,99167.50
2022-12-22T13:22:30.433Z,99166.66
2022-12-22T13:24:59.518Z,99168.38
2022-12-22T13:27:26.861Z,99161.53
2022-12-22T13:29:55.041Z,99164.97
2022-12-22T13:32:33.678Z,99161.53
2022-12-22T13:35:32.647Z,99164.97
2022-12-22T13:38:01.079Z,99158.09
2022-12-22T13:40:33.433Z,99156.41
2022-12-22T13:43:10.345Z,99148.72
2022-12-22T13:45:38.987Z,99146.16
2022-12-22T13:48:16.104Z,99146.16
2022-12-22T13:50:48.360Z,99140.16
2022-12-22T13:56:43.673Z,99146.13
2022-12-22T13:59:28.915Z,99151.25
2022-12-22T14:02:05.670Z,99151.25
2022-12-22T14:04:32.831Z,99151.25
2022-12-22T14:07:14.765Z,99150.41
2022-12-22T14:09:45.806Z,99147.00
2022-12-22T14:12:30.902Z,99129.09
2022-12-22T14:15:02.154Z,99146.16
2022-12-22T14:17:35.636Z,99137.56
2022-12-22T14:20:24.139Z,99139.31
2022-12-22T14:22:54.870Z,99135.88
2022-12-22T14:25:34.331Z,99138.44
2022-12-22T14:28:03.041Z,99137.59
2022-12-22T14:30:42.166Z,99146.97
2022-12-22T14:33:38.429Z,99144.44
2022-12-22T14:36:17.508Z,99138.47
2022-12-22T14:38:50.778Z,99130.75
2022-12-22T14:41:41.209Z,99131.59
2022-12-22T14:44:15.450Z,99123.97
2022-12-22T14:46:44.823Z,99124.81
2022-12-22T14:49:18.609Z,99129.94
2022-12-22T14:52:06.452Z,99127.41
2022-12-22T14:54:34.048Z,99125.69
2022-12-22T14:57:15.805Z,99129.94
2022-12-22T15:00:03.439Z,99123.97
2022-12-22T15:02:39.701Z,99119.69
2022-12-22T15:05:16.401Z,99135.91
2022-12-22T15:08:06.742Z,99117.09
2022-12-22T15:10:44.012Z,99119.66
2022-12-22T15:13:24.661Z,99117.09
2022-12-22T15:15:52.423Z,99114.56
2022-12-22T15:18:25.354Z,99120.50
2022-12-22T15:20:52.777Z,99123.94
2022-12-22T15:23:19.870Z,99118.84
2022-12-22T15:25:47.149Z,99113.72
2022-12-22T15:28:14.723Z,99123.06
2022-12-22T15:30:42.846Z,99113.69
2022-12-22T15:33:20.175Z,99120.53
2022-12-22T15:35:47.503Z,99110.25
2022-12-22T15:38:17.576Z,99111.94
2022-12-22T15:40:45.106Z,99113.69
2022-12-22T15:43:36.609Z,99111.94
2022-12-22T15:46:00.252Z,99110.25
2022-12-22T15:48:31.039Z,99111.94
2022-12-22T15:50:59.157Z,99105.09
2022-12-22T15:53:26.532Z,99108.53
2022-12-22T15:55:55.291Z,99113.66
2022-12-22T15:58:28.038Z,99103.38
2022-12-22T16:00:55.456Z,99089.75
2022-12-22T16:03:22.879Z,99099.94
2022-12-22T16:05:50.348Z,99106.78
2022-12-22T16:08:23.351Z,99101.66
2022-12-22T16:10:50.809Z,99101.66
2022-12-22T16:13:22.209Z,99097.34
2022-12-22T16:15:49.447Z,99094.78
2022-12-22T16:18:17.849Z,99091.38
2022-12-22T16:20:45.739Z,99093.06
2022-12-22T16:23:23.210Z,99089.63
2022-12-22T16:25:55.474Z,99089.63
2022-12-22T16:28:26.122Z,99090.50
2022-12-22T16:30:53.621Z,99086.22
2022-12-22T16:33:20.885Z,99091.34
2022-12-22T16:35:47.994Z,99083.69
2022-12-22T16:38:18.937Z,99089.63
2022-12-22T16:40:52.133Z,99086.22
2022-12-22T16:46:16.349Z,99093.03
2022-12-22T16:49:05.752Z,99077.66
2022-12-22T16:51:34.497Z,99089.63
2022-12-22T16:54:02.318Z,99084.50
2022-12-22T16:56:30.660Z,99084.50
2022-12-22T16:58:58.380Z,99079.34
2022-12-22T17:01:31.644Z,99074.25
2022-12-22T17:04:03.905Z,99078.50
2022-12-22T17:06:31.167Z,99070.00
2022-12-22T17:08:58.566Z,99078.47
2022-12-22T17:11:29.436Z,99074.22
2022-12-22T17:14:08.353Z,99072.53
2022-12-22T17:16:35.535Z,99075.06
2022-12-22T17:19:02.709Z,99075.91
2022-12-22T17:21:30.170Z,99072.47
2022-12-22T17:24:04.249Z,99072.47
2022-12-22T17:26:34.014Z,99068.19
2022-12-22T17:29:01.491Z,99074.22
2022-12-22T17:31:29.049Z,99063.94
2022-12-22T17:33:57.144Z,99072.44
2022-12-22T17:36:38.178Z,99072.44
2022-12-22T17:39:05.496Z,99062.19
2022-12-22T17:41:33.141Z,99059.59
2022-12-22T17:44:00.314Z,99067.31
2022-12-22T17:46:28.056Z,99066.47
2022-12-22T17:48:55.214Z,99065.63
2022-12-22T17:51:28.841Z,99064.75
2022-12-22T17:53:59.026Z,99058.78
2022-12-22T17:56:27.683Z,99065.59
2022-12-22T17:58:54.948Z,99066.44
2022-12-22T18:01:23.283Z,99070.72
2022-12-22T18:03:50.849Z,99067.31
2022-12-22T18:06:21.176Z,99071.56
2022-12-22T18:08:48.345Z,99072.44
2022-12-22T18:11:15.892Z,99067.31
2022-12-22T18:13:43.266Z,99065.59
2022-12-22T18:16:15.815Z,99061.38
2022-12-22T18:18:44.007Z,99068.19
2022-12-22T18:21:15.552Z,99069.03
2022-12-22T18:23:49.662Z,99079.28
2022-12-22T18:26:25.334Z,99069.88
2022-12-22T18:28:53.052Z,99069.88
2022-12-22T18:31:21.007Z,99067.31
2022-12-22T18:33:48.266Z,99067.31
2022-12-22T18:36:23.937Z,99072.44
2022-12-22T18:38:51.119Z,99069.88
2022-12-22T18:41:23.689Z,99080.97
2022-12-22T18:43:51.469Z,99080.97
2022-12-22T18:46:19.754Z,99080.13
2022-12-22T18:48:48.026Z,99077.56
2022-12-22T18:51:28.151Z,99077.59
2022-12-22T18:53:55.412Z,99088.72
2022-12-22T18:56:22.561Z,99079.31
2022-12-22T18:58:49.637Z,99074.19
2022-12-22T19:01:26.760Z,99082.75
2022-12-22T19:03:56.090Z,99078.44
2022-12-22T19:06:24.697Z,99086.16
2022-12-22T19:08:52.145Z,99087.00
2022-12-22T19:11:24.875Z,99079.31
2022-12-22T19:13:52.713Z,99086.16
2022-12-22T19:16:25.162Z,99094.72
2022-12-22T19:18:52.295Z,99081.91
2022-12-22T19:21:19.656Z,99093.00
2022-12-22T19:23:46.885Z,99096.44
2022-12-22T19:26:25.713Z,99098.16
2022-12-22T19:28:56.057Z,99095.63
2022-12-22T19:31:27.108Z,99103.31
2022-12-22T19:33:56.225Z,99099.88
2022-12-22T19:36:26.886Z,99099.03
2022-12-22T19:39:03.879Z,99062.47
2022-12-22T19:41:50.376Z,99105.91
2022-12-22T19:44:29.362Z,99110.16
2022-12-22T19:46:59.460Z,99106.78
2022-12-22T19:49:28.308Z,99115.28
2022-12-22T19:51:56.372Z,99113.59
2022-12-22T19:54:23.680Z,99112.75
2022-12-22T19:56:54.903Z,99119.56
2022-12-22T19:59:40.429Z,99118.72
2022-12-22T20:02:28.051Z,99108.47
2022-12-22T20:04:56.296Z,99113.59
2022-12-22T20:07:25.563Z,99113.59
2022-12-22T20:09:53.260Z,99113.59
2022-12-22T20:12:33.908Z,99125.53
2022-12-22T20:15:02.553Z,99125.56
2022-12-22T20:17:29.617Z,99128.13
2022-12-22T20:19:56.779Z,99130.69
2022-12-22T20:22:24.214Z,99131.56
2022-12-22T20:24:52.051Z,99137.56
2022-12-22T20:27:24.122Z,99137.56
2022-12-22T20:29:51.275Z,99134.13
2022-12-22T20:32:23.834Z,99118.78
2022-12-22T20:34:54.693Z,99121.31
2022-12-22T20:37:21.878Z,99128.16
2022-12-22T20:39:48.981Z,99123.88
2022-12-22T20:42:21.051Z,99134.16
2022-12-22T20:45:02.920Z,99130.72
2022-12-22T20:47:33.702Z,99126.47
2022-12-22T20:50:01.040Z,99139.31
2022-12-22T20:52:28.229Z,99142.72
2022-12-22T20:54:55.391Z,99146.13
2022-12-22T20:57:23.725Z,99141.00
2022-12-22T20:59:56.120Z,99141.00
2022-12-22T21:02:28.694Z,99141.00
2022-12-22T21:04:56.453Z,99135.88
2022-12-22T21:07:23.659Z,99137.56
2022-12-22T21:09:50.757Z,99144.44
2022-12-22T21:12:17.954Z,99152.13
2022-12-22T21:14:45.024Z,99141.03
2022-12-22T21:17:17.257Z,99156.41
2022-12-22T21:19:45.334Z,99164.09
2022-12-22T21:22:12.411Z,99168.38
2022-12-22T21:24:40.338Z,99170.97
2022-12-22T21:27:13.496Z,99173.50
2022-12-22T21:29:40.558Z,99182.06
2022-12-22T21:32:13.139Z,99175.28
2022-12-22T21:34:40.194Z,99191.47
2022-12-22T21:37:15.565Z,99186.34
2022-12-22T21:39:45.036Z,99185.50
2022-12-22T21:42:16.478Z,99188.91
2022-12-22T21:44:44.838Z,99182.09
2022-12-22T21:47:18.078Z,99190.66
2022-12-22T21:49:45.230Z,99197.47
2022-12-22T21:52:12.512Z,99192.34
2022-12-22T21:54:39.849Z,99197.47
2022-12-22T21:57:06.967Z,99199.19
2022-12-22T21:59:34.103Z,99195.78
2022-12-22T22:02:01.316Z,99197.47
2022-12-22T22:04:28.646Z,99203.50
2022-12-22T22:06:55.790Z,99204.31
2022-12-22T22:09:22.822Z,99203.47
2022-12-22T22:12:08.528Z,99200.91
2022-12-22T22:14:35.747Z,99210.28
2022-12-22T22:17:02.911Z,99211.19
2022-12-22T22:19:30.002Z,99206.03
2022-12-22T22:21:57.060Z,99209.47
2022-12-22T22:24:24.125Z,99211.19
2022-12-22T22:26:51.854Z,99206.91
2022-12-22T22:29:19.108Z,99217.16
2022-12-22T22:31:46.229Z,99217.13
2022-12-22T22:34:13.521Z,99216.31
2022-12-22T22:36:40.594Z,99228.28
2022-12-22T22:39:07.888Z,99221.44
2022-12-22T22:41:40.965Z,99226.56
2022-12-22T22:44:10.176Z,99236.81
2022-12-22T22:46:37.310Z,99234.25
2022-12-22T22:49:04.490Z,99235.13
2022-12-22T22:51:31.683Z,99228.31
2022-12-22T22:53:58.812Z,99235.13
2022-12-22T22:56:26.030Z,99236.84
2022-12-22T22:58:53.079Z,99236.88
2022-12-22T23:01:20.290Z,99240.31
2022-12-22T23:03:47.510Z,99233.47
2022-12-22T23:06:14.760Z,99238.63
2022-12-22T23:08:41.726Z,99233.53
2022-12-22T23:11:14.359Z,99234.38
2022-12-22T23:13:42.183Z,99236.94
2022-12-22T23:16:10.193Z,99241.25
2022-12-22T23:18:37.408Z,99233.56
2022-12-22T23:21:06.723Z,99248.13
2022-12-22T23:23:34.161Z,99249.84
2022-12-22T23:26:01.299Z,99263.53
2022-12-22T23:28:28.359Z,99255.81
2022-12-22T23:30:55.737Z,99258.41
2022-12-22T23:33:22.894Z,99260.13
2022-12-22T23:35:50.544Z,99271.22
2022-12-22T23:38:19.884Z,99271.22
2022-12-22T23:40:54.939Z,99263.53
2022-12-22T23:43:22.388Z,99266.09
2022-12-22T23:45:49.479Z,99266.09
2022-12-22T23:48:16.715Z,99265.25
2022-12-22T23:50:47.624Z,99264.41
2022-12-22T23:53:15.402Z,99260.97
2022-12-22T23:55:49.470Z,99255.88
2022-12-22T23:58:17.308Z,99259.28
